Time;durP1;ratioP1;P1;durP2;ratioP2;P2;SDS_P1;SDS_P2;PMS_P1;PMS_P2;Temp;Humidity;BMP_temperature;BMP_pressure;BME280_temperature;BME280_humidity;BME280_pressure;Samples;Min_cycle;Max_cycle;Signal;HPM_P1;HPM_P2
2024/04/02 00:00:07;;;;;;;;;;;;;;;8.14;100.00;96836.94;5074369;28;20345;-46
2024/04/02 00:02:33;;;;;;;;;;;;;;;8.03;100.00;96844.56;5069657;28;19951;-48
2024/04/02 00:04:58;;;;;;;;;;;;;;;7.92;100.00;96848.78;5074656;28;20385;-46
2024/04/02 00:07:23;;;;;;;;;;;;;;;7.98;100.00;96850.97;5062492;28;20335;-48
2024/04/02 00:09:49;;;;;;;;;;;;;;;7.80;100.00;96859.91;5069862;28;19954;-46
2024/04/02 00:12:16;;;;;;;;;;;;;;;7.81;100.00;96859.00;5070358;28;20033;-46
2024/04/02 00:14:41;;;;;;;;;;;;;;;7.72;100.00;96865.59;5063875;28;19984;-46
2024/04/02 00:17:06;;;;;;;;;;;;;;;7.94;100.00;96850.34;5073404;28;20359;-46
2024/04/02 00:19:31;;;;;;;;;;;;;;;7.82;100.00;96858.88;5072034;28;20364;-47
2024/04/02 00:21:57;;;;;;;;;;;;;;;7.94;100.00;96858.13;5062147;28;19961;-47
2024/04/02 00:24:22;;;;;;;;;;;;;;;7.88;100.00;96861.09;5072461;28;19995;-46
2024/04/02 00:26:47;;;;;;;;;;;;;;;7.70;100.00;96864.84;5074371;28;19931;-46
2024/04/02 00:29:12;;;;;;;;;;;;;;;7.61;100.00;96862.84;5071860;28;19981;-46
2024/04/02 00:31:37;;;;;;;;;;;;;;;7.50;100.00;96870.44;5067888;28;20432;-47
2024/04/02 00:34:03;;;;;;;;;;;;;;;7.66;100.00;96875.50;5063727;28;19944;-46
2024/04/02 00:36:28;;;;;;;;;;;;;;;7.59;100.00;96875.06;5070275;28;19947;-46
2024/04/02 00:38:53;;;;;;;;;;;;;;;7.52;100.00;96884.13;5063637;28;19924;-47
2024/04/02 00:41:18;;;;;;;;;;;;;;;7.56;100.00;96883.00;5060549;28;19926;-46
2024/04/02 00:43:44;;;;;;;;;;;;;;;7.54;100.00;96887.44;5069323;28;19924;-46
2024/04/02 00:46:09;;;;;;;;;;;;;;;7.30;100.00;96888.94;5071720;28;19924;-46
2024/04/02 00:48:34;;;;;;;;;;;;;;;7.40;100.00;96879.72;5059458;28;19939;-47
2024/04/02 00:51:00;;;;;;;;;;;;;;;7.38;100.00;96878.97;5070636;28;20438;-47
2024/04/02 00:53:25;;;;;;;;;;;;;;;7.47;100.00;96886.16;5070919;28;19913;-46
2024/04/02 00:55:51;;;;;;;;;;;;;;;7.29;100.00;96889.88;5069839;28;19927;-46
2024/04/02 00:58:16;;;;;;;;;;;;;;;7.35;100.00;96891.28;5068539;28;19940;-45
2024/04/02 01:00:43;;;;;;;;;;;;;;;7.31;100.00;96898.41;5062893;28;20039;-46
2024/04/02 01:03:09;;;;;;;;;;;;;;;7.38;100.00;96901.44;5071779;28;20281;-47
2024/04/02 01:05:36;;;;;;;;;;;;;;;7.45;100.00;96898.38;5068194;28;19967;-46
2024/04/02 01:08:02;;;;;;;;;;;;;;;7.66;100.00;96901.38;5062622;28;20326;-46
2024/04/02 01:10:27;;;;;;;;;;;;;;;7.94;100.00;96912.50;5066846;28;20015;-47
2024/04/02 01:12:53;;;;;;;;;;;;;;;7.70;100.00;96908.03;5069161;28;19989;-48
2024/04/02 01:15:22;;;;;;;;;;;;;;;8.01;100.00;96915.56;5067151;28;19930;-46
2024/04/02 01:17:47;;;;;;;;;;;;;;;8.03;100.00;96919.69;5069750;28;20238;-46
2024/04/02 01:20:13;;;;;;;;;;;;;;;8.18;100.00;96921.31;5071098;28;19977;-46
2024/04/02 01:22:38;;;;;;;;;;;;;;;8.21;100.00;96931.50;5062797;28;19946;-46
2024/04/02 01:25:04;;;;;;;;;;;;;;;8.18;100.00;96926.50;5065310;28;20236;-46
2024/04/02 01:27:29;;;;;;;;;;;;;;;8.18;100.00;96923.91;5064722;28;20316;-47
2024/04/02 01:29:55;;;;;;;;;;;;;;;8.17;100.00;96924.00;5074170;28;20006;-47
2024/04/02 01:32:21;;;;;;;;;;;;;;;8.35;100.00;96934.03;5067056;28;19924;-46
2024/04/02 01:34:46;;;;;;;;;;;;;;;8.33;100.00;96933.31;5068613;28;20397;-46
2024/04/02 01:37:11;;;;;;;;;;;;;;;8.27;100.00;96928.53;5065767;28;21277;-47
2024/04/02 01:39:36;;;;;;;;;;;;;;;8.39;100.00;96934.69;5071907;28;20325;-46
2024/04/02 01:42:02;;;;;;;;;;;;;;;8.32;100.00;96929.06;5070704;28;19939;-46
2024/04/02 01:44:27;;;;;;;;;;;;;;;8.28;100.00;96943.16;5061601;28;19921;-46
2024/04/02 01:46:52;;;;;;;;;;;;;;;8.29;100.00;96944.00;5072191;28;20000;-46
2024/04/02 01:49:17;;;;;;;;;;;;;;;8.21;100.00;96949.66;5064024;28;19937;-46
2024/04/02 01:51:44;;;;;;;;;;;;;;;8.14;100.00;96950.09;5065727;28;19961;-46
2024/04/02 01:54:09;;;;;;;;;;;;;;;8.16;100.00;96949.06;5070970;28;19912;-46
2024/04/02 01:56:34;;;;;;;;;;;;;;;8.18;100.00;96952.41;5076343;28;19993;-46
2024/04/02 01:58:59;;;;;;;;;;;;;;;8.26;100.00;96959.72;5076605;28;19946;-43
2024/04/02 02:01:24;;;;;;;;;;;;;;;8.22;100.00;96953.09;5074161;28;20328;-44
2024/04/02 02:03:50;;;;;;;;;;;;;;;8.15;100.00;96960.38;5075221;28;20317;-44
2024/04/02 02:06:15;;;;;;;;;;;;;;;8.05;100.00;96967.06;5069315;28;20343;-43
2024/04/02 02:08:40;;;;;;;;;;;;;;;7.92;100.00;96961.00;5065495;28;19913;-43
2024/04/02 02:11:05;;;;;;;;;;;;;;;8.03;100.00;96960.31;5075203;28;19920;-46
2024/04/02 02:13:35;;;;;;;;;;;;;;;8.12;100.00;96964.91;5075073;28;20381;-46
2024/04/02 02:16:00;;;;;;;;;;;;;;;8.24;100.00;96972.81;5075593;28;19916;-46
2024/04/02 02:18:26;;;;;;;;;;;;;;;8.22;100.00;96976.41;5067452;28;19944;-47
2024/04/02 02:20:51;;;;;;;;;;;;;;;8.25;100.00;96978.78;5071526;28;19912;-49
2024/04/02 02:23:16;;;;;;;;;;;;;;;8.38;100.00;96977.94;5065073;28;19960;-46
2024/04/02 02:25:42;;;;;;;;;;;;;;;8.26;100.00;96981.31;5073147;28;19991;-46
2024/04/02 02:28:07;;;;;;;;;;;;;;;8.27;100.00;96980.38;5069787;28;19935;-45
2024/04/02 02:30:32;;;;;;;;;;;;;;;8.29;100.00;96981.09;5067182;28;19999;-46
2024/04/02 02:32:57;;;;;;;;;;;;;;;8.39;100.00;96981.34;5076775;28;19972;-46
2024/04/02 02:35:22;;;;;;;;;;;;;;;8.40;100.00;96978.66;5074131;28;20039;-46
2024/04/02 02:37:48;;;;;;;;;;;;;;;8.43;100.00;96988.81;5071315;28;19956;-46
2024/04/02 02:40:13;;;;;;;;;;;;;;;8.30;100.00;96987.94;5074925;28;19944;-46
2024/04/02 02:42:38;;;;;;;;;;;;;;;8.25;100.00;97000.38;5065601;28;19948;-46
2024/04/02 02:45:04;;;;;;;;;;;;;;;8.43;100.00;97003.56;5070571;28;19939;-46
2024/04/02 02:47:29;;;;;;;;;;;;;;;8.33;100.00;97008.50;5071051;28;19912;-46
2024/04/02 02:49:54;;;;;;;;;;;;;;;8.50;100.00;97010.81;5075502;28;19932;-45
2024/04/02 02:52:19;;;;;;;;;;;;;;;8.45;100.00;97012.91;5072046;28;20271;-45
2024/04/02 02:54:45;;;;;;;;;;;;;;;8.47;100.00;97020.56;5062654;28;20507;-47
2024/04/02 02:57:10;;;;;;;;;;;;;;;8.57;100.00;97021.66;5071710;28;19924;-46
2024/04/02 02:59:35;;;;;;;;;;;;;;;8.55;100.00;97019.16;5069372;28;19932;-47
2024/04/02 03:02:00;;;;;;;;;;;;;;;8.51;100.00;97020.28;5065790;28;19952;-46
2024/04/02 03:04:25;;;;;;;;;;;;;;;8.48;100.00;97023.06;5067195;28;20029;-46
2024/04/02 03:06:51;;;;;;;;;;;;;;;8.64;100.00;97023.78;5072545;28;19945;-47
2024/04/02 03:09:16;;;;;;;;;;;;;;;8.61;100.00;97025.72;5069748;28;19920;-46
2024/04/02 03:11:41;;;;;;;;;;;;;;;8.52;100.00;97019.38;5067134;28;19932;-47
2024/04/02 03:14:06;;;;;;;;;;;;;;;8.60;100.00;97016.25;5070417;28;20028;-47
2024/04/02 03:16:32;;;;;;;;;;;;;;;8.41;100.00;97021.78;5070811;28;19977;-46
2024/04/02 03:18:57;;;;;;;;;;;;;;;8.32;100.00;97022.38;5072538;28;19934;-46
2024/04/02 03:21:22;;;;;;;;;;;;;;;8.33;100.00;97029.22;5060277;28;20062;-47
2024/04/02 03:23:47;;;;;;;;;;;;;;;8.31;100.00;97031.09;5062838;28;20349;-47
2024/04/02 03:26:13;;;;;;;;;;;;;;;8.19;100.00;97031.84;5070290;28;19917;-47
2024/04/02 03:28:39;;;;;;;;;;;;;;;8.02;100.00;97031.22;5063507;28;20346;-46
2024/04/02 03:31:04;;;;;;;;;;;;;;;8.00;100.00;97033.03;5064421;28;19953;-46
2024/04/02 03:33:29;;;;;;;;;;;;;;;8.09;100.00;97030.72;5067639;28;20011;-47
2024/04/02 03:36:01;;;;;;;;;;;;;;;7.90;100.00;97035.34;5074523;28;20014;-46
2024/04/02 03:38:26;;;;;;;;;;;;;;;7.77;100.00;97034.47;5067127;28;19916;-46
2024/04/02 03:40:51;;;;;;;;;;;;;;;7.70;100.00;97038.31;5067040;28;20079;-47
2024/04/02 03:43:17;;;;;;;;;;;;;;;7.67;100.00;97041.13;5066149;28;20023;-47
2024/04/02 03:45:42;;;;;;;;;;;;;;;7.57;100.00;97037.41;5066207;28;19943;-46
2024/04/02 03:48:08;;;;;;;;;;;;;;;7.66;100.00;97036.03;5064507;28;19924;-46
2024/04/02 03:50:37;;;;;;;;;;;;;;;7.59;100.00;97045.94;5062586;28;19983;-46
2024/04/02 03:53:03;;;;;;;;;;;;;;;7.70;100.00;97043.50;5064437;28;20378;-43
2024/04/02 03:55:35;;;;;;;;;;;;;;;7.59;100.00;97040.75;5060472;28;19943;-44
2024/04/02 03:58:00;;;;;;;;;;;;;;;7.57;100.00;97044.34;5071868;28;19978;-47
2024/04/02 04:00:25;;;;;;;;;;;;;;;7.54;100.00;97045.34;5063975;28;20008;-46
2024/04/02 04:02:50;;;;;;;;;;;;;;;7.61;100.00;97044.06;5061985;28;19926;-46
2024/04/02 04:05:16;;;;;;;;;;;;;;;7.68;100.00;97039.38;5066896;28;19934;-48
2024/04/02 04:07:41;;;;;;;;;;;;;;;7.69;100.00;97041.03;5064743;28;19952;-46
2024/04/02 04:10:06;;;;;;;;;;;;;;;7.65;100.00;97045.56;5067303;28;19949;-46
2024/04/02 04:12:32;;;;;;;;;;;;;;;7.70;100.00;97038.31;5066579;28;19970;-46
2024/04/02 04:14:57;;;;;;;;;;;;;;;7.87;100.00;97056.28;5067825;28;20329;-44
2024/04/02 04:17:22;;;;;;;;;;;;;;;7.92;100.00;97054.25;5056879;28;20398;-43
2024/04/02 04:19:47;;;;;;;;;;;;;;;7.89;100.00;97054.41;5061102;28;20370;-43
2024/04/02 04:22:12;;;;;;;;;;;;;;;7.81;100.00;97055.84;5065767;28;19921;-46
2024/04/02 04:24:37;;;;;;;;;;;;;;;7.93;100.00;97066.28;5060617;28;20069;-46
2024/04/02 04:27:03;;;;;;;;;;;;;;;8.00;100.00;97072.75;5068432;28;19930;-48
2024/04/02 04:29:28;;;;;;;;;;;;;;;7.96;100.00;97075.63;5063814;28;19926;-47
2024/04/02 04:31:53;;;;;;;;;;;;;;;8.05;100.00;97075.91;5068679;28;19916;-46
2024/04/02 04:34:19;;;;;;;;;;;;;;;8.06;100.00;97077.56;5064372;28;19916;-47
2024/04/02 04:36:44;;;;;;;;;;;;;;;8.16;100.00;97086.41;5066239;28;20371;-46
2024/04/02 04:39:10;;;;;;;;;;;;;;;8.20;100.00;97079.31;5074467;28;20377;-46
2024/04/02 04:41:35;;;;;;;;;;;;;;;8.26;100.00;97082.38;5065123;28;19991;-46
2024/04/02 04:44:01;;;;;;;;;;;;;;;8.26;100.00;97079.78;5064946;28;19930;-46
2024/04/02 04:46:26;;;;;;;;;;;;;;;8.10;100.00;97091.97;5063403;28;19966;-46
2024/04/02 04:48:51;;;;;;;;;;;;;;;8.22;100.00;97088.66;5070039;28;19971;-46
2024/04/02 04:51:16;;;;;;;;;;;;;;;8.08;100.00;97101.59;5062586;28;20292;-44
2024/04/02 04:53:42;;;;;;;;;;;;;;;8.14;100.00;97101.22;5063887;28;19921;-45
2024/04/02 04:56:07;;;;;;;;;;;;;;;8.18;100.00;97110.50;5064620;28;19969;-44
2024/04/02 04:58:39;;;;;;;;;;;;;;;8.27;100.00;97117.72;5063070;28;19936;-46
2024/04/02 05:01:06;;;;;;;;;;;;;;;8.33;100.00;97113.91;5066019;28;19985;-43
2024/04/02 05:03:32;;;;;;;;;;;;;;;8.39;100.00;97118.72;5069837;28;19920;-44
2024/04/02 05:06:04;;;;;;;;;;;;;;;8.36;100.00;97132.72;5066438;28;20019;-45
2024/04/02 05:08:30;;;;;;;;;;;;;;;8.47;100.00;97125.13;5064777;28;19936;-44
2024/04/02 05:10:56;;;;;;;;;;;;;;;8.60;100.00;97131.22;5069620;28;20049;-43
2024/04/02 05:13:21;;;;;;;;;;;;;;;8.50;100.00;97137.88;5065229;28;20025;-43
2024/04/02 05:15:46;;;;;;;;;;;;;;;8.54;100.00;97139.38;5065988;28;20012;-43
2024/04/02 05:18:12;;;;;;;;;;;;;;;8.44;100.00;97146.06;5069687;28;19981;-43
2024/04/02 05:20:37;;;;;;;;;;;;;;;8.46;100.00;97148.53;5068246;28;19939;-43
2024/04/02 05:23:04;;;;;;;;;;;;;;;8.36;100.00;97153.44;5066752;28;19920;-46
2024/04/02 05:25:29;;;;;;;;;;;;;;;8.47;100.00;97156.22;5065077;28;19969;-47
2024/04/02 05:27:54;;;;;;;;;;;;;;;8.56;100.00;97160.84;5076716;28;19955;-46
2024/04/02 05:30:20;;;;;;;;;;;;;;;8.46;100.00;97166.69;5074537;28;19997;-47
2024/04/02 05:32:45;;;;;;;;;;;;;;;8.45;100.00;97168.47;5068228;28;20004;-48
2024/04/02 05:35:10;;;;;;;;;;;;;;;8.58;100.00;97168.53;5069698;28;19931;-46
2024/04/02 05:37:35;;;;;;;;;;;;;;;8.63;100.00;97172.50;5069476;28;19916;-46
2024/04/02 05:40:04;;;;;;;;;;;;;;;9.07;100.00;97167.97;5070113;28;19955;-49
2024/04/02 05:42:29;;;;;;;;;;;;;;;9.34;100.00;97168.78;5076139;28;20006;-46
2024/04/02 05:44:54;;;;;;;;;;;;;;;9.62;100.00;97155.66;5073742;28;20374;-46
2024/04/02 05:47:21;;;;;;;;;;;;;;;9.83;100.00;97163.81;5068566;28;19961;-46
2024/04/02 05:49:46;;;;;;;;;;;;;;;9.62;100.00;97165.25;5067091;28;20279;-47
2024/04/02 05:52:11;;;;;;;;;;;;;;;9.31;100.00;97170.75;5071303;28;20026;-46
2024/04/02 05:54:36;;;;;;;;;;;;;;;9.42;100.00;97171.72;5072904;28;19916;-46
2024/04/02 05:57:02;;;;;;;;;;;;;;;9.36;100.00;97179.09;5075523;28;19930;-46
2024/04/02 05:59:27;;;;;;;;;;;;;;;9.58;100.00;97176.75;5066260;28;19938;-46
2024/04/02 06:01:52;;;;;;;;;;;;;;;9.92;100.00;97179.63;5065303;28;20334;-47
2024/04/02 06:04:17;;;;;;;;;;;;;;;10.26;98.64;97188.59;5064388;28;19926;-47
2024/04/02 06:06:43;;;;;;;;;;;;;;;10.45;95.31;97179.47;5074170;28;19938;-47
2024/04/02 06:09:08;;;;;;;;;;;;;;;10.63;93.87;97182.56;5065540;28;19939;-45
2024/04/02 06:11:33;;;;;;;;;;;;;;;10.68;92.40;97190.88;5071389;28;20002;-43
2024/04/02 06:13:59;;;;;;;;;;;;;;;11.09;91.11;97192.22;5074285;28;19927;-44
2024/04/02 06:16:25;;;;;;;;;;;;;;;11.52;87.68;97196.00;5069497;28;19939;-44
2024/04/02 06:18:51;;;;;;;;;;;;;;;11.59;86.30;97205.91;5072932;28;19934;-44
2024/04/02 06:21:17;;;;;;;;;;;;;;;12.04;85.09;97204.28;5067802;28;19942;-44
2024/04/02 06:23:45;;;;;;;;;;;;;;;12.55;81.93;97210.78;5072354;28;19921;-44
2024/04/02 06:26:14;;;;;;;;;;;;;;;12.99;79.08;97216.88;5070899;28;20439;-45
2024/04/02 06:28:39;;;;;;;;;;;;;;;12.30;80.53;97211.00;5073413;28;19931;-46
2024/04/02 06:31:05;;;;;;;;;;;;;;;11.67;83.26;97215.75;5072173;28;19994;-44
2024/04/02 06:33:30;;;;;;;;;;;;;;;11.34;86.31;97220.78;5070816;28;20384;-45
2024/04/02 06:35:55;;;;;;;;;;;;;;;11.02;90.12;97227.44;5068674;28;19965;-44
2024/04/02 06:38:20;;;;;;;;;;;;;;;10.84;92.05;97219.16;5068911;28;20034;-45
2024/04/02 06:40:45;;;;;;;;;;;;;;;10.85;95.19;97227.81;5069804;28;20249;-45
2024/04/02 06:43:11;;;;;;;;;;;;;;;10.90;94.62;97229.13;5070983;28;20598;-44
2024/04/02 06:45:36;;;;;;;;;;;;;;;10.68;95.31;97235.94;5069253;28;20324;-44
2024/04/02 06:48:01;;;;;;;;;;;;;;;10.70;94.85;97236.69;5069534;28;20027;-45
2024/04/02 06:50:26;;;;;;;;;;;;;;;10.79;94.54;97233.44;5066680;28;19958;-44
2024/04/02 06:52:52;;;;;;;;;;;;;;;10.78;95.72;97235.19;5064655;28;20018;-46
2024/04/02 06:55:17;;;;;;;;;;;;;;;10.97;94.87;97232.16;5066811;28;20363;-45
2024/04/02 06:57:42;;;;;;;;;;;;;;;11.37;94.56;97242.22;5073792;28;20362;-45
2024/04/02 07:00:07;;;;;;;;;;;;;;;11.41;92.78;97245.44;5070081;28;19938;-45
2024/04/02 07:02:33;;;;;;;;;;;;;;;11.41;92.26;97238.47;5068798;28;19924;-44
2024/04/02 07:04:58;;;;;;;;;;;;;;;11.43;91.09;97246.19;5067332;28;19988;-44
2024/04/02 07:07:24;;;;;;;;;;;;;;;11.38;89.96;97241.28;5059315;28;20450;-44
2024/04/02 07:09:49;;;;;;;;;;;;;;;11.58;89.73;97245.13;5066451;28;19999;-44
2024/04/02 07:12:14;;;;;;;;;;;;;;;11.76;89.94;97238.56;5068516;28;20319;-46
2024/04/02 07:14:39;;;;;;;;;;;;;;;12.31;87.16;97249.19;5068395;28;19940;-45
2024/04/02 07:17:05;;;;;;;;;;;;;;;12.89;82.75;97251.63;5064090;28;19924;-45
2024/04/02 07:19:30;;;;;;;;;;;;;;;13.45;79.75;97250.66;5066406;28;20025;-46
2024/04/02 07:21:55;;;;;;;;;;;;;;;14.40;75.96;97256.72;5072429;28;20105;-46
2024/04/02 07:24:20;;;;;;;;;;;;;;;14.54;74.54;97259.03;5063538;28;19935;-47
2024/04/02 07:26:46;;;;;;;;;;;;;;;14.87;71.18;97253.56;5064818;28;19930;-46
2024/04/02 07:29:11;;;;;;;;;;;;;;;15.72;69.47;97255.66;5073782;28;19933;-46
2024/04/02 07:31:36;;;;;;;;;;;;;;;16.12;67.17;97248.50;5062220;28;20009;-47
2024/04/02 07:34:01;;;;;;;;;;;;;;;15.45;68.40;97263.34;5070303;28;19923;-46
2024/04/02 07:36:26;;;;;;;;;;;;;;;13.91;71.40;97261.69;5069143;28;19937;-46
2024/04/02 07:38:52;;;;;;;;;;;;;;;13.39;73.49;97269.44;5060877;28;19945;-45
2024/04/02 07:41:17;;;;;;;;;;;;;;;13.18;74.03;97281.56;5066396;28;19972;-45
2024/04/02 07:43:42;;;;;;;;;;;;;;;13.10;76.05;97276.13;5068051;28;19924;-45
2024/04/02 07:46:09;;;;;;;;;;;;;;;12.88;75.30;97286.50;5074686;28;19923;-46
2024/04/02 07:48:34;;;;;;;;;;;;;;;13.42;74.75;97279.63;5063214;28;19917;-45
2024/04/02 07:51:06;;;;;;;;;;;;;;;14.45;73.37;97292.06;5069465;28;20273;-45
2024/04/02 07:53:32;;;;;;;;;;;;;;;17.25;65.42;97285.09;5063771;28;20356;-46
2024/04/02 07:55:57;;;;;;;;;;;;;;;15.99;62.90;97295.19;5069600;28;19978;-46
2024/04/02 07:58:22;;;;;;;;;;;;;;;17.02;61.85;97296.94;5071596;28;20021;-47
2024/04/02 08:00:47;;;;;;;;;;;;;;;20.42;53.68;97297.50;5072639;28;20024;-46
2024/04/02 08:03:13;;;;;;;;;;;;;;;19.32;55.67;97290.69;5072410;28;20410;-46
2024/04/02 08:05:40;;;;;;;;;;;;;;;19.84;51.61;97286.16;5066013;28;19921;-45
2024/04/02 08:08:06;;;;;;;;;;;;;;;22.13;49.07;97310.91;5065561;28;19923;-46
2024/04/02 08:10:32;;;;;;;;;;;;;;;23.55;45.43;97311.75;5065830;28;19946;-46
2024/04/02 08:12:58;;;;;;;;;;;;;;;23.06;44.72;97305.25;5064472;28;19935;-46
2024/04/02 08:15:23;;;;;;;;;;;;;;;20.77;47.93;97308.59;5063875;28;20335;-47
2024/04/02 08:17:48;;;;;;;;;;;;;;;21.16;47.05;97304.28;5070288;28;19923;-46
2024/04/02 08:20:15;;;;;;;;;;;;;;;22.61;46.11;97315.94;5068157;28;19963;-46
2024/04/02 08:22:40;;;;;;;;;;;;;;;19.33;49.58;97308.22;5064782;28;20036;-48
2024/04/02 08:25:10;;;;;;;;;;;;;;;15.99;58.16;97308.31;5062052;28;20030;-46
2024/04/02 08:27:35;;;;;;;;;;;;;;;20.83;51.59;97321.16;5067422;28;19948;-47
2024/04/02 08:30:00;;;;;;;;;;;;;;;18.47;54.17;97318.78;5066158;28;19924;-46
2024/04/02 08:32:26;;;;;;;;;;;;;;;15.74;58.65;97321.94;5061269;28;19913;-47
2024/04/02 08:34:51;;;;;;;;;;;;;;;14.83;62.48;97336.00;5066329;28;19940;-46
2024/04/02 08:37:16;;;;;;;;;;;;;;;15.21;62.30;97334.41;5065171;28;19924;-47
2024/04/02 08:39:42;;;;;;;;;;;;;;;15.08;62.82;97327.72;5058627;28;19938;-47
2024/04/02 08:42:07;;;;;;;;;;;;;;;18.90;57.88;97342.53;5067105;28;19985;-46
2024/04/02 08:44:33;;;;;;;;;;;;;;;17.39;55.42;97342.50;5067568;28;19932;-46
2024/04/02 08:46:59;;;;;;;;;;;;;;;15.19;60.46;97343.38;5069087;28;19946;-46
2024/04/02 08:49:24;;;;;;;;;;;;;;;14.19;65.77;97348.34;5067923;28;19912;-46
2024/04/02 08:51:50;;;;;;;;;;;;;;;13.89;68.64;97360.41;5071363;28;20447;-47
2024/04/02 08:54:15;;;;;;;;;;;;;;;13.99;67.52;97346.47;5065163;28;19986;-47
2024/04/02 08:56:41;;;;;;;;;;;;;;;13.55;69.57;97363.97;5066827;28;19990;-46
2024/04/02 08:59:08;;;;;;;;;;;;;;;13.31;70.72;97373.75;5065990;28;19935;-45
2024/04/02 09:01:33;;;;;;;;;;;;;;;13.42;71.61;97371.13;5064024;28;19951;-45
2024/04/02 09:04:01;;;;;;;;;;;;;;;13.15;72.73;97365.41;5071965;28;19940;-46
2024/04/02 09:06:26;;;;;;;;;;;;;;;13.08;72.89;97374.66;5067240;28;19917;-45
2024/04/02 09:08:52;;;;;;;;;;;;;;;12.53;77.63;97379.72;5065266;28;19928;-45
2024/04/02 09:11:18;;;;;;;;;;;;;;;12.13;82.35;97399.22;5067980;28;20247;-46
2024/04/02 09:13:43;;;;;;;;;;;;;;;12.47;86.26;97390.59;5065268;28;19949;-44
2024/04/02 09:16:10;;;;;;;;;;;;;;;12.55;85.89;97393.47;5070661;28;19935;-45
2024/04/02 09:18:37;;;;;;;;;;;;;;;12.86;86.06;97392.88;5068882;28;19945;-45
2024/04/02 09:21:02;;;;;;;;;;;;;;;12.91;85.95;97381.13;5071711;28;20038;-46
2024/04/02 09:23:28;;;;;;;;;;;;;;;12.75;85.18;97385.84;5071350;28;19938;-47
2024/04/02 09:25:54;;;;;;;;;;;;;;;13.32;82.76;97383.25;5073970;28;19999;-45
2024/04/02 09:28:19;;;;;;;;;;;;;;;14.27;78.06;97386.97;5069315;28;19927;-46
2024/04/02 09:30:44;;;;;;;;;;;;;;;13.53;77.84;97382.44;5072117;28;20028;-45
2024/04/02 09:33:09;;;;;;;;;;;;;;;13.09;79.64;97384.19;5075187;28;19984;-45
2024/04/02 09:35:38;;;;;;;;;;;;;;;15.83;71.59;97384.13;5067778;28;19924;-45
2024/04/02 09:38:04;;;;;;;;;;;;;;;17.06;66.33;97373.75;5065051;28;19929;-48
2024/04/02 09:40:30;;;;;;;;;;;;;;;16.92;63.83;97372.38;5066048;28;19923;-46
2024/04/02 09:42:56;;;;;;;;;;;;;;;17.46;62.81;97372.53;5068767;28;19936;-46
2024/04/02 09:45:22;;;;;;;;;;;;;;;18.22;59.64;97374.81;5070396;28;20354;-46
2024/04/02 09:47:49;;;;;;;;;;;;;;;18.79;57.92;97370.94;5069021;28;20266;-46
2024/04/02 09:50:16;;;;;;;;;;;;;;;18.92;55.69;97366.91;5067659;28;20019;-47
2024/04/02 09:52:42;;;;;;;;;;;;;;;17.88;55.87;97363.22;5073594;28;19999;-46
2024/04/02 09:55:08;;;;;;;;;;;;;;;17.76;57.78;97376.72;5069810;28;19920;-45
2024/04/02 09:57:33;;;;;;;;;;;;;;;19.32;54.29;97375.16;5065165;28;20047;-47
2024/04/02 09:59:58;;;;;;;;;;;;;;;19.44;54.04;97368.63;5065322;28;20050;-46
2024/04/02 10:02:26;;;;;;;;;;;;;;;19.55;53.63;97359.63;5067226;28;19950;-47
2024/04/02 10:04:52;;;;;;;;;;;;;;;20.59;51.62;97368.75;5071991;28;20289;-47
2024/04/02 10:07:27;;;;;;;;;;;;;;;20.23;49.82;97362.09;5066051;28;19924;-47
2024/04/02 10:09:59;;;;;;;;;;;;;;;21.01;49.70;97369.50;5072419;28;20305;-46
2024/04/02 10:12:31;;;;;;;;;;;;;;;19.54;50.35;97369.38;5068045;28;19949;-46
2024/04/02 10:14:57;;;;;;;;;;;;;;;17.44;52.42;97368.41;5065793;28;20524;-48
2024/04/02 10:17:22;;;;;;;;;;;;;;;17.60;53.80;97353.66;5066268;28;19936;-46
2024/04/02 10:19:48;;;;;;;;;;;;;;;18.54;51.70;97362.00;5068155;28;20566;-46
2024/04/02 10:22:25;;;;;;;;;;;;;;;17.60;54.30;97368.63;5062594;28;19937;-46
2024/04/02 10:25:02;;;;;;;;;;;;;;;16.79;54.91;97367.53;5071304;28;20018;-46
2024/04/02 10:27:32;;;;;;;;;;;;;;;17.34;54.08;97373.69;5068490;28;19958;-46
2024/04/02 10:29:57;;;;;;;;;;;;;;;15.94;56.14;97370.88;5070363;28;20267;-47
2024/04/02 10:32:26;;;;;;;;;;;;;;;15.77;57.72;97379.41;5064987;28;19931;-47
2024/04/02 10:34:51;;;;;;;;;;;;;;;15.93;57.20;97366.59;5065349;28;20614;-46
2024/04/02 10:37:17;;;;;;;;;;;;;;;15.41;58.04;97372.91;5063211;28;19917;-46
2024/04/02 10:39:42;;;;;;;;;;;;;;;16.69;55.88;97369.34;5065292;28;20359;-46
2024/04/02 10:42:07;;;;;;;;;;;;;;;16.38;56.32;97370.44;5067707;28;20073;-46
2024/04/02 10:44:33;;;;;;;;;;;;;;;16.24;57.07;97383.94;5060289;28;20358;-47
2024/04/02 10:47:01;;;;;;;;;;;;;;;15.43;59.47;97383.28;5066018;28;19958;-47
2024/04/02 10:49:26;;;;;;;;;;;;;;;15.34;61.19;97397.16;5064653;28;20001;-47
2024/04/02 10:51:51;;;;;;;;;;;;;;;16.53;59.64;97390.09;5065502;28;19955;-46
2024/04/02 10:54:16;;;;;;;;;;;;;;;19.02;54.49;97385.28;5065467;28;20332;-46
2024/04/02 10:56:42;;;;;;;;;;;;;;;19.30;51.78;97371.84;5069142;28;19920;-46
2024/04/02 10:59:07;;;;;;;;;;;;;;;20.14;50.12;97373.63;5069139;28;19926;-46
2024/04/02 11:01:32;;;;;;;;;;;;;;;20.29;48.60;97358.78;5064704;28;19935;-46
2024/04/02 11:04:02;;;;;;;;;;;;;;;20.57;48.16;97354.88;5067285;28;20288;-47
2024/04/02 11:06:27;;;;;;;;;;;;;;;20.73;47.93;97359.34;5059419;28;19977;-47
2024/04/02 11:08:54;;;;;;;;;;;;;;;21.30;47.68;97359.19;5066718;28;19927;-46
2024/04/02 11:11:23;;;;;;;;;;;;;;;21.04;47.51;97353.25;5062741;28;19927;-46
2024/04/02 11:13:48;;;;;;;;;;;;;;;20.37;47.92;97358.00;5066549;28;19939;-47
2024/04/02 11:16:17;;;;;;;;;;;;;;;20.01;48.13;97357.38;5065767;28;19924;-47
2024/04/02 11:18:43;;;;;;;;;;;;;;;19.53;48.98;97351.88;5068282;28;20366;-46
2024/04/02 11:21:13;;;;;;;;;;;;;;;18.61;50.02;97347.22;5063612;28;19927;-46
2024/04/02 11:26:23;;;;;;;;;;;;;;;20.79;46.40;97348.94;5069669;28;20246;-48
2024/04/02 11:28:48;;;;;;;;;;;;;;;20.70;46.53;97344.63;5068359;28;19936;-47
2024/04/02 11:31:14;;;;;;;;;;;;;;;21.81;45.13;97364.06;5065964;28;20305;-46
2024/04/02 11:33:40;;;;;;;;;;;;;;;20.50;46.50;97361.00;5061444;28;19920;-46
2024/04/02 11:36:07;;;;;;;;;;;;;;;20.35;48.20;97358.16;5064003;28;19939;-47
2024/04/02 11:38:32;;;;;;;;;;;;;;;19.27;49.54;97358.97;5065426;28;19939;-46
2024/04/02 11:40:59;;;;;;;;;;;;;;;19.29;50.83;97370.22;5064650;28;19946;-47
2024/04/02 11:43:24;;;;;;;;;;;;;;;18.43;52.29;97364.84;5066672;28;19920;-46
2024/04/02 11:45:51;;;;;;;;;;;;;;;20.77;50.57;97381.88;5062988;28;20394;-46
2024/04/02 11:48:16;;;;;;;;;;;;;;;21.58;48.07;97373.69;5063132;28;19983;-46
2024/04/02 11:50:41;;;;;;;;;;;;;;;21.10;48.43;97368.47;5056463;28;19961;-47
2024/04/02 11:53:06;;;;;;;;;;;;;;;20.11;49.24;97373.94;5064150;28;19951;-48
2024/04/02 11:55:33;;;;;;;;;;;;;;;21.58;47.79;97378.19;5061910;28;20018;-46
2024/04/02 12:00:43;;;;;;;;;;;;;;;21.69;48.51;97381.31;5060817;28;19946;-47
2024/04/02 12:03:09;;;;;;;;;;;;;;;19.82;51.14;97389.31;5062230;28;19916;-47
2024/04/02 12:05:36;;;;;;;;;;;;;;;19.36;51.89;97387.06;5059278;28;19981;-47
2024/04/02 12:08:02;;;;;;;;;;;;;;;18.33;52.23;97390.41;5059769;28;19926;-45
2024/04/02 12:10:27;;;;;;;;;;;;;;;17.68;53.95;97382.72;5060726;28;19925;-46
2024/04/02 12:12:52;;;;;;;;;;;;;;;17.06;55.40;97389.53;5064151;28;19917;-45
2024/04/02 12:15:18;;;;;;;;;;;;;;;16.73;56.55;97402.25;5068714;28;19984;-45
2024/04/02 12:17:43;;;;;;;;;;;;;;;16.65;57.64;97412.63;5061840;28;19965;-45
2024/04/02 12:20:09;;;;;;;;;;;;;;;16.74;60.03;97411.78;5060267;28;19950;-46
2024/04/02 12:22:34;;;;;;;;;;;;;;;18.53;59.82;97413.03;5062700;28;20335;-46
2024/04/02 12:25:00;;;;;;;;;;;;;;;20.72;54.32;97411.41;5063877;28;20010;-45
2024/04/02 12:27:27;;;;;;;;;;;;;;;20.84;52.59;97410.13;5062741;28;20331;-45
2024/04/02 12:29:57;;;;;;;;;;;;;;;20.88;50.29;97400.06;5061825;28;20071;-45
2024/04/02 12:32:23;;;;;;;;;;;;;;;21.02;48.21;97405.53;5059314;28;19929;-45
2024/04/02 12:34:49;;;;;;;;;;;;;;;20.33;48.08;97401.59;5060888;28;19948;-45
2024/04/02 12:37:14;;;;;;;;;;;;;;;19.96;47.70;97407.22;5056865;28;19943;-45
2024/04/02 12:39:41;;;;;;;;;;;;;;;20.65;47.75;97410.41;5061109;28;19931;-46
2024/04/02 12:42:08;;;;;;;;;;;;;;;21.42;46.57;97400.22;5056388;28;19963;-51
2024/04/02 12:44:33;;;;;;;;;;;;;;;21.25;47.14;97413.66;5064483;28;19917;-48